createdAt,value
2019-03-13T00:00:44.154Z,-1.04
2019-03-13T00:02:52.515Z,-1.03
2019-03-13T00:04:59.182Z,-1.03
2019-03-13T00:07:05.873Z,-1.03
2019-03-13T00:09:13.152Z,-1.05
2019-03-13T00:11:19.817Z,-1.04
2019-03-13T00:13:26.510Z,-1.03
2019-03-13T00:15:33.275Z,-1.06
2019-03-13T00:17:39.946Z,-1.07
2019-03-13T00:19:46.645Z,-1.07
2019-03-13T00:21:53.308Z,-1.06
2019-03-13T00:23:59.977Z,-1.07
2019-03-13T00:26:07.050Z,-1.07
2019-03-13T00:28:13.797Z,-1.11
2019-03-13T00:30:20.524Z,-1.12
2019-03-13T00:32:27.216Z,-1.14
2019-03-13T00:34:33.883Z,-1.12
2019-03-13T00:36:40.565Z,-1.12
2019-03-13T00:38:47.261Z,-1.11
2019-03-13T00:40:53.930Z,-1.11
2019-03-13T00:43:00.587Z,-1.10
2019-03-13T00:45:14.474Z,-1.07
2019-03-13T00:47:21.212Z,-1.07
2019-03-13T00:49:27.878Z,-1.09
2019-03-13T00:51:36.995Z,-1.10
2019-03-13T00:53:42.956Z,-1.14
2019-03-13T00:55:49.625Z,-1.12
2019-03-13T00:57:56.323Z,-1.12
2019-03-13T01:00:03.262Z,-1.11
2019-03-13T01:02:12.059Z,-1.11
2019-03-13T01:04:20.401Z,-1.11
2019-03-13T01:06:28.715Z,-1.07
2019-03-13T01:08:35.383Z,-1.09
2019-03-13T01:10:42.148Z,-1.05
2019-03-13T01:12:48.810Z,-1.02
2019-03-13T01:14:55.536Z,-1.05
2019-03-13T01:17:02.302Z,-1.03
2019-03-13T01:19:08.959Z,-1.05
2019-03-13T01:21:15.627Z,-1.01
2019-03-13T01:23:22.324Z,-1.03
2019-03-13T01:25:29.000Z,-1.03
2019-03-13T01:27:35.673Z,-1.03
2019-03-13T01:29:42.360Z,-1.02
2019-03-13T01:32:06.891Z,-1.03
2019-03-13T01:34:23.965Z,-1.05
2019-03-13T01:36:30.649Z,-1.02
2019-03-13T01:38:37.359Z,-0.99
2019-03-13T01:40:43.985Z,-1.00
2019-03-13T01:42:50.693Z,-1.03
2019-03-13T01:44:57.416Z,-1.03
2019-03-13T01:47:04.099Z,-1.03
2019-03-13T01:49:10.776Z,-1.01
2019-03-13T01:51:17.555Z,-1.00
2019-03-13T01:53:24.288Z,-0.98
2019-03-13T01:55:30.996Z,-0.98
2019-03-13T01:57:37.662Z,-0.99
2019-03-13T01:59:44.326Z,-0.95
2019-03-13T02:01:51.023Z,-0.94
2019-03-13T02:03:57.821Z,-0.97
2019-03-13T02:06:04.488Z,-0.98
2019-03-13T02:08:11.179Z,-0.90
2019-03-13T02:10:17.862Z,-0.92
2019-03-13T02:12:24.508Z,-0.90
2019-03-13T02:14:31.200Z,-0.91
2019-03-13T02:16:37.875Z,-0.92
2019-03-13T02:18:44.599Z,-0.92
2019-03-13T02:20:51.285Z,-0.93
2019-03-13T02:22:57.951Z,-0.92
2019-03-13T02:25:06.819Z,-0.91
2019-03-13T02:27:13.529Z,-0.92
2019-03-13T02:29:21.266Z,-0.90
2019-03-13T02:31:27.934Z,-0.91
2019-03-13T02:33:34.717Z,-0.92
2019-03-13T02:35:41.363Z,-0.90
2019-03-13T02:37:48.057Z,-0.85
2019-03-13T02:39:54.734Z,-0.81
2019-03-13T02:42:01.403Z,-0.80
2019-03-13T02:44:08.073Z,-0.78
2019-03-13T02:46:14.838Z,-0.70
2019-03-13T02:48:21.497Z,-0.71
2019-03-13T02:50:28.319Z,-0.75
2019-03-13T02:52:35.006Z,-0.75
2019-03-13T02:54:41.683Z,-0.76
2019-03-13T02:56:48.347Z,-0.72
2019-03-13T02:58:55.227Z,-0.70
2019-03-13T03:01:12.747Z,-0.72
2019-03-13T03:03:21.061Z,-0.72
2019-03-13T03:05:27.808Z,-0.73
2019-03-13T03:07:34.546Z,-0.73
2019-03-13T03:09:41.215Z,-0.73
2019-03-13T03:11:48.001Z,-0.71
2019-03-13T03:13:54.717Z,-0.70
2019-03-13T03:16:01.387Z,-0.68
2019-03-13T03:18:09.077Z,-0.65
2019-03-13T03:20:21.080Z,-0.60
2019-03-13T03:22:27.756Z,-0.52
2019-03-13T03:24:34.463Z,-0.48
2019-03-13T03:26:41.112Z,-0.44
2019-03-13T03:28:47.859Z,-0.40
2019-03-13T03:30:54.970Z,-0.40
2019-03-13T03:33:01.642Z,-0.37
2019-03-13T03:35:08.302Z,-0.35
2019-03-13T03:37:14.994Z,-0.32
2019-03-13T03:39:21.745Z,-0.28
2019-03-13T03:41:28.801Z,-0.27
2019-03-13T03:43:40.586Z,-0.24
2019-03-13T03:45:43.863Z,-0.26
2019-03-13T03:47:50.544Z,-0.23
2019-03-13T03:49:57.215Z,-0.21
2019-03-13T03:52:03.889Z,-0.20
2019-03-13T03:54:11.765Z,-0.19
2019-03-13T03:56:18.529Z,-0.16
2019-03-13T03:58:29.647Z,-0.17
2019-03-13T04:00:36.784Z,-0.15
2019-03-13T04:02:43.853Z,-0.15
2019-03-13T04:04:50.514Z,-0.14
2019-03-13T04:06:57.182Z,-0.14
2019-03-13T04:09:04.960Z,-0.13
2019-03-13T04:11:11.697Z,-0.13
2019-03-13T04:13:18.453Z,-0.12
2019-03-13T04:15:25.219Z,-0.08
2019-03-13T04:17:31.950Z,-0.04
2019-03-13T04:19:38.618Z,0.00
2019-03-13T04:21:45.311Z,0.02
2019-03-13T04:23:51.979Z,0.02
2019-03-13T04:25:58.648Z,0.02
2019-03-13T04:28:05.731Z,0.05
2019-03-13T04:30:13.809Z,0.11
2019-03-13T04:32:20.549Z,0.12
2019-03-13T04:34:27.304Z,0.14
2019-03-13T04:36:33.967Z,0.18
2019-03-13T04:38:40.640Z,0.20
2019-03-13T04:40:47.316Z,0.26
2019-03-13T04:42:53.977Z,0.30
2019-03-13T04:45:00.632Z,0.36
2019-03-13T04:47:07.313Z,0.38
2019-03-13T04:49:14.057Z,0.40
2019-03-13T04:51:20.715Z,0.44
2019-03-13T04:53:27.426Z,0.49
2019-03-13T04:55:34.144Z,0.53
2019-03-13T04:57:40.811Z,0.56
2019-03-13T04:59:47.570Z,0.59
2019-03-13T05:01:54.230Z,0.60
2019-03-13T05:04:00.900Z,0.63
2019-03-13T05:06:12.178Z,0.64
2019-03-13T05:08:23.261Z,0.68
2019-03-13T05:10:29.932Z,0.70
2019-03-13T05:12:36.731Z,0.72
2019-03-13T05:14:43.396Z,0.75
2019-03-13T05:16:50.168Z,0.77
2019-03-13T05:18:56.841Z,0.81
2019-03-13T05:21:03.502Z,0.85
2019-03-13T05:23:10.165Z,0.88
2019-03-13T05:25:19.217Z,0.91
2019-03-13T05:27:25.580Z,0.95
2019-03-13T05:29:32.234Z,1.00
2019-03-13T05:31:39.002Z,1.06
2019-03-13T05:33:45.868Z,1.08
2019-03-13T05:35:52.610Z,1.14
2019-03-13T05:37:59.300Z,1.19
2019-03-13T05:40:10.713Z,1.22
2019-03-13T05:42:18.593Z,1.29
2019-03-13T05:44:25.345Z,1.35
2019-03-13T05:46:32.077Z,1.41
2019-03-13T05:48:38.745Z,1.47
2019-03-13T05:50:45.444Z,1.55
2019-03-13T05:52:52.602Z,1.57
2019-03-13T05:54:59.269Z,1.58
2019-03-13T05:57:05.961Z,1.62
2019-03-13T05:59:12.699Z,1.63
2019-03-13T06:01:19.410Z,1.69
2019-03-13T06:03:27.201Z,1.75
2019-03-13T06:05:33.935Z,1.80
2019-03-13T06:07:40.604Z,1.89
2019-03-13T06:09:47.294Z,1.96
2019-03-13T06:11:54.024Z,2.00
2019-03-13T06:14:00.755Z,2.02
2019-03-13T06:16:07.441Z,2.12
2019-03-13T06:18:14.180Z,2.21
2019-03-13T06:20:20.903Z,2.34
2019-03-13T06:22:27.604Z,2.45
2019-03-13T06:24:34.261Z,2.59
2019-03-13T06:26:40.912Z,2.69
2019-03-13T06:28:47.607Z,2.77
2019-03-13T06:30:54.261Z,3.08
2019-03-13T06:33:00.918Z,3.35
2019-03-13T06:35:09.879Z,3.56
2019-03-13T06:37:16.546Z,3.43
2019-03-13T06:39:23.207Z,3.62
2019-03-13T06:41:29.893Z,3.91
2019-03-13T06:43:36.548Z,3.70
2019-03-13T06:45:43.209Z,3.30
2019-03-13T06:47:49.913Z,3.21
2019-03-13T06:49:56.566Z,3.28
2019-03-13T06:52:03.233Z,3.10
2019-03-13T06:54:09.928Z,2.93
2019-03-13T06:56:18.005Z,2.96
2019-03-13T06:58:26.380Z,2.96
2019-03-13T07:00:35.768Z,2.92
2019-03-13T07:02:44.065Z,2.75
2019-03-13T07:05:04.725Z,2.83
2019-03-13T07:07:13.041Z,2.86
2019-03-13T07:09:21.347Z,2.88
2019-03-13T07:11:39.588Z,2.90
2019-03-13T07:13:47.916Z,2.96
2019-03-13T07:15:56.211Z,2.94
2019-03-13T07:18:20.566Z,3.11
2019-03-13T07:20:31.910Z,3.25
2019-03-13T07:22:40.219Z,3.33
2019-03-13T07:24:48.513Z,3.65
2019-03-13T07:26:54.950Z,3.98
2019-03-13T07:29:15.159Z,4.41
2019-03-13T07:31:38.834Z,4.77
2019-03-13T07:33:49.926Z,4.54
2019-03-13T07:35:58.220Z,5.18
2019-03-13T07:38:09.232Z,5.09
2019-03-13T07:40:17.555Z,4.69
2019-03-13T07:42:25.942Z,4.66
2019-03-13T07:44:32.368Z,4.33
2019-03-13T07:46:49.809Z,4.17
2019-03-13T07:49:09.918Z,4.18
2019-03-13T07:51:20.926Z,4.07
2019-03-13T07:53:27.373Z,4.04
2019-03-13T07:55:38.391Z,3.98
2019-03-13T07:57:52.553Z,4.04
2019-03-13T08:00:00.880Z,4.24
2019-03-13T08:02:09.203Z,4.39
2019-03-13T08:04:23.314Z,4.50
2019-03-13T08:06:31.645Z,4.51
2019-03-13T08:08:46.125Z,4.54
2019-03-13T08:11:09.498Z,4.56
2019-03-13T08:13:24.715Z,4.56
2019-03-13T08:15:33.003Z,4.49
2019-03-13T08:17:41.336Z,4.56
2019-03-13T08:19:49.701Z,4.47
2019-03-13T08:22:14.204Z,4.53
2019-03-13T08:24:22.495Z,4.68
2019-03-13T08:26:36.801Z,4.66
2019-03-13T08:28:43.229Z,4.83
2019-03-13T08:31:09.765Z,4.94
2019-03-13T08:33:21.914Z,4.91
2019-03-13T08:35:36.446Z,4.97
2019-03-13T08:38:00.983Z,4.97
2019-03-13T08:40:10.602Z,5.18
2019-03-13T08:42:35.327Z,5.43
2019-03-13T08:44:59.589Z,5.62
2019-03-13T08:47:24.006Z,5.68
2019-03-13T08:49:32.307Z,5.52
2019-03-13T08:51:40.594Z,5.47
2019-03-13T08:53:56.369Z,5.44
2019-03-13T08:56:14.110Z,5.43
2019-03-13T08:58:34.326Z,5.53
2019-03-13T09:00:50.043Z,5.51
2019-03-13T09:03:16.402Z,5.59
2019-03-13T09:05:25.798Z,5.70
2019-03-13T09:07:43.365Z,5.80
2019-03-13T09:10:07.643Z,5.67
2019-03-13T09:12:15.943Z,5.72
2019-03-13T09:14:27.218Z,5.67
2019-03-13T09:16:35.518Z,5.79
2019-03-13T09:18:46.831Z,5.84
2019-03-13T09:21:01.204Z,5.97
2019-03-13T09:23:18.825Z,6.23
2019-03-13T09:25:43.440Z,6.50
2019-03-13T09:28:01.976Z,6.71
2019-03-13T09:30:15.099Z,6.77
2019-03-13T09:32:39.836Z,6.83
2019-03-13T09:34:48.173Z,6.79
2019-03-13T09:37:08.642Z,7.01
2019-03-13T09:39:18.028Z,6.95
2019-03-13T09:41:29.111Z,6.87
2019-03-13T09:43:53.627Z,6.86
2019-03-13T09:46:18.200Z,6.89
2019-03-13T09:48:32.746Z,7.09
2019-03-13T09:50:41.867Z,6.88
2019-03-13T09:52:51.972Z,6.68
2019-03-13T09:55:16.214Z,6.74
2019-03-13T09:57:33.280Z,6.65
2019-03-13T09:59:50.324Z,6.58
2019-03-13T10:02:10.718Z,6.71
2019-03-13T10:04:25.264Z,6.83
2019-03-13T10:06:49.945Z,6.79
2019-03-13T10:09:04.436Z,6.74
2019-03-13T10:11:17.269Z,6.72
2019-03-13T10:13:34.586Z,6.73
2019-03-13T10:15:45.849Z,6.54
2019-03-13T10:17:58.048Z,6.41
2019-03-13T10:20:07.592Z,6.67
2019-03-13T10:22:14.032Z,6.79
2019-03-13T10:24:32.725Z,6.82
2019-03-13T10:26:41.023Z,6.89
2019-03-13T10:28:49.346Z,7.04
2019-03-13T10:31:12.636Z,7.18
2019-03-13T10:33:20.926Z,7.44
2019-03-13T10:35:45.545Z,7.54
2019-03-13T10:37:57.896Z,7.65
2019-03-13T10:40:24.276Z,7.60
2019-03-13T10:42:30.731Z,7.58
2019-03-13T10:44:55.036Z,7.54
2019-03-13T10:47:12.207Z,7.31
2019-03-13T10:49:20.541Z,7.20
2019-03-13T10:51:45.182Z,7.24
2019-03-13T10:53:56.528Z,7.38
2019-03-13T10:56:04.852Z,7.40
2019-03-13T10:58:13.249Z,7.41
2019-03-13T11:00:21.828Z,7.36
2019-03-13T11:02:42.481Z,7.60
2019-03-13T11:04:50.777Z,7.54
2019-03-13T11:06:59.081Z,7.38
2019-03-13T11:09:07.350Z,7.23
2019-03-13T11:11:17.224Z,7.27
2019-03-13T11:13:43.792Z,7.39
2019-03-13T11:16:08.160Z,7.41
2019-03-13T11:18:28.467Z,7.37
2019-03-13T11:20:34.883Z,7.13
2019-03-13T11:22:53.394Z,6.93
2019-03-13T11:25:07.576Z,6.77
2019-03-13T11:27:32.177Z,6.69
2019-03-13T11:29:52.757Z,6.50
2019-03-13T11:32:01.097Z,6.43
2019-03-13T11:34:15.677Z,6.23
2019-03-13T11:36:40.235Z,5.97
2019-03-13T11:38:51.256Z,5.79
2019-03-13T11:40:59.555Z,5.70
2019-03-13T11:43:15.045Z,5.68
2019-03-13T11:45:35.537Z,5.61
2019-03-13T11:47:43.862Z,5.62
2019-03-13T11:49:57.979Z,5.52
2019-03-13T11:52:09.461Z,5.51
2019-03-13T11:54:32.785Z,5.46
2019-03-13T11:56:39.232Z,5.43
2019-03-13T11:58:53.272Z,5.41
2019-03-13T12:01:01.556Z,5.37
2019-03-13T12:03:18.895Z,5.34
2019-03-13T12:05:32.965Z,5.32
2019-03-13T12:07:52.911Z,5.24
2019-03-13T12:09:59.360Z,5.23
2019-03-13T12:12:13.761Z,5.22
2019-03-13T12:14:31.112Z,5.26
2019-03-13T12:16:39.497Z,5.29
2019-03-13T12:18:53.564Z,5.25
2019-03-13T12:21:18.016Z,5.34
2019-03-13T12:23:24.460Z,5.38
2019-03-13T12:25:32.762Z,5.28
2019-03-13T12:27:44.015Z,5.27
2019-03-13T12:29:50.474Z,5.22
2019-03-13T12:32:14.973Z,5.17
2019-03-13T12:34:24.139Z,5.14
2019-03-13T12:36:42.039Z,5.13
2019-03-13T12:39:06.604Z,5.25
2019-03-13T12:41:31.910Z,5.27
2019-03-13T12:43:46.437Z,5.37
2019-03-13T12:46:00.695Z,5.30
2019-03-13T12:48:16.170Z,5.28
2019-03-13T12:50:19.755Z,5.22
2019-03-13T15:15:25.629Z,6.82
2019-03-13T15:17:32.294Z,6.81
2019-03-13T15:23:07.691Z,6.82
2019-03-13T15:25:15.866Z,6.76
2019-03-13T15:27:22.591Z,6.70
2019-03-13T15:29:29.273Z,6.65
2019-03-13T15:31:35.936Z,6.63
2019-03-13T15:33:42.597Z,6.61
2019-03-13T15:35:49.348Z,6.60
2019-03-13T15:37:56.162Z,6.60
2019-03-13T15:40:03.409Z,6.57
2019-03-13T15:42:10.090Z,6.53
2019-03-13T15:44:16.826Z,6.47
2019-03-13T15:46:23.560Z,6.41
2019-03-13T15:48:30.313Z,6.36
2019-03-13T15:50:36.911Z,6.31
2019-03-13T15:52:43.565Z,6.23
2019-03-13T15:54:51.329Z,6.18
2019-03-13T15:56:58.082Z,6.12
2019-03-13T15:59:04.736Z,6.07
2019-03-13T16:01:11.434Z,5.98
2019-03-13T16:03:18.130Z,5.90
2019-03-13T16:05:24.915Z,5.80
2019-03-13T16:07:31.596Z,5.70
2019-03-13T16:09:39.725Z,5.62
2019-03-13T16:11:47.816Z,5.55
2019-03-13T16:13:54.568Z,5.51
2019-03-13T16:16:01.689Z,5.49
2019-03-13T16:18:10.098Z,5.44
2019-03-13T16:20:18.174Z,5.46
2019-03-13T16:22:26.179Z,5.46
2019-03-13T16:24:32.902Z,5.47
2019-03-13T16:26:39.878Z,5.51
2019-03-13T16:28:46.611Z,5.53
2019-03-13T16:30:54.940Z,5.52
2019-03-13T16:33:02.846Z,5.48
2019-03-13T16:35:11.687Z,5.37
2019-03-13T16:37:19.617Z,5.23
2019-03-13T16:39:26.629Z,5.09
2019-03-13T16:41:33.226Z,4.96
2019-03-13T16:43:40.042Z,4.84
2019-03-13T16:45:46.804Z,4.72
2019-03-13T16:49:05.380Z,4.63
2019-03-13T16:51:12.309Z,4.55
2019-03-13T16:53:18.895Z,4.49
2019-03-13T16:57:31.039Z,4.55
2019-03-13T16:59:37.692Z,4.45
2019-03-13T17:01:44.417Z,4.41
2019-03-13T17:03:51.123Z,4.35
2019-03-13T17:06:00.452Z,4.28
2019-03-13T17:08:07.184Z,4.28
2019-03-13T17:10:17.505Z,4.30
2019-03-13T17:12:24.922Z,4.31
2019-03-13T17:14:31.589Z,4.34
2019-03-13T17:16:38.264Z,4.41
2019-03-13T17:18:48.887Z,4.47
2019-03-13T17:20:56.953Z,4.52
2019-03-13T17:23:03.720Z,4.56
2019-03-13T17:25:14.913Z,4.60
2019-03-13T17:27:21.610Z,4.63
2019-03-13T17:29:28.264Z,4.68
2019-03-13T17:31:34.918Z,4.74
2019-03-13T17:33:42.347Z,4.76
2019-03-13T17:35:49.050Z,4.76
2019-03-13T17:37:55.786Z,4.77
2019-03-13T17:40:02.520Z,4.79
2019-03-13T17:42:10.610Z,4.82
2019-03-13T17:44:18.736Z,4.82
2019-03-13T17:46:25.463Z,4.80
2019-03-13T17:48:32.238Z,4.76
2019-03-13T17:50:38.960Z,4.74
2019-03-13T17:52:45.680Z,4.73
2019-03-13T17:54:52.370Z,4.68
2019-03-13T17:57:00.895Z,4.63
2019-03-13T17:59:09.108Z,4.60
2019-03-13T18:01:17.086Z,4.59
2019-03-13T18:03:25.148Z,4.58
2019-03-13T18:05:31.809Z,4.58
2019-03-13T18:07:38.648Z,4.58
2019-03-13T18:09:46.847Z,4.61
2019-03-13T18:11:55.043Z,4.63
2019-03-13T18:14:02.932Z,4.66
2019-03-13T18:16:09.670Z,4.72
2019-03-13T18:18:16.400Z,4.77
2019-03-13T18:20:24.757Z,4.82
2019-03-13T18:22:31.490Z,4.83
2019-03-13T18:24:38.199Z,4.86
2019-03-13T18:26:44.972Z,4.89
2019-03-13T18:28:51.700Z,4.92
2019-03-13T18:31:01.681Z,4.94
2019-03-13T18:33:07.293Z,4.94
2019-03-13T18:35:15.631Z,4.97
2019-03-13T18:37:22.356Z,4.99
2019-03-13T18:39:29.037Z,4.99
2019-03-13T18:41:35.696Z,4.99
2019-03-13T18:43:42.441Z,5.00
2019-03-13T18:45:49.191Z,4.97
2019-03-13T18:47:56.232Z,4.97
2019-03-13T18:50:02.962Z,4.95
2019-03-13T18:52:10.024Z,4.87
2019-03-13T18:54:16.761Z,4.84
2019-03-13T18:56:24.828Z,4.79
2019-03-13T18:58:34.589Z,4.71
2019-03-13T19:00:40.048Z,4.64
2019-03-13T19:02:46.881Z,4.58
2019-03-13T19:04:53.578Z,4.52
2019-03-13T19:07:00.406Z,4.46
2019-03-13T19:09:07.709Z,4.47
2019-03-13T19:11:15.922Z,4.43
2019-03-13T19:13:22.593Z,4.39
2019-03-13T19:15:30.423Z,4.31
2019-03-13T19:17:37.102Z,4.29
2019-03-13T19:19:43.839Z,4.24
2019-03-13T19:21:50.499Z,4.19
2019-03-13T19:23:58.638Z,4.13
2019-03-13T19:26:05.362Z,4.09
2019-03-13T19:28:12.108Z,4.06
2019-03-13T19:30:33.117Z,4.03
2019-03-13T19:32:39.844Z,3.98
2019-03-13T19:34:46.578Z,3.92
2019-03-13T19:36:53.440Z,3.89
2019-03-13T19:39:04.956Z,3.84
2019-03-13T19:41:13.510Z,3.83
2019-03-13T19:43:21.097Z,3.77
2019-03-13T19:45:40.204Z,3.73
2019-03-13T19:47:47.423Z,3.67
2019-03-13T19:49:54.173Z,3.61
2019-03-13T19:52:02.431Z,3.57
2019-03-13T19:54:09.105Z,3.54
2019-03-13T19:56:18.964Z,3.51
2019-03-13T19:58:26.689Z,3.48
2019-03-13T20:00:33.520Z,3.48
2019-03-13T20:02:40.295Z,3.44
2019-03-13T20:04:47.759Z,3.43
2019-03-13T20:06:54.734Z,3.41
2019-03-13T20:09:01.434Z,3.40
2019-03-13T20:11:13.598Z,3.37
2019-03-13T20:13:22.831Z,3.36
2019-03-13T20:15:37.294Z,3.33
2019-03-13T20:17:45.026Z,3.33
2019-03-13T20:19:53.227Z,3.32
2019-03-13T20:22:00.071Z,3.28
2019-03-13T20:24:07.904Z,3.26
2019-03-13T20:26:14.644Z,3.23
2019-03-13T20:28:21.408Z,3.23
2019-03-13T20:30:30.508Z,3.20
2019-03-13T20:32:39.039Z,3.16
2019-03-13T20:34:47.402Z,3.10
2019-03-13T20:36:54.132Z,3.06
2019-03-13T20:39:03.521Z,3.02
2019-03-13T20:41:13.287Z,2.98
2019-03-13T20:43:23.129Z,2.99
2019-03-13T20:45:33.034Z,2.95
2019-03-13T20:47:39.794Z,2.92
2019-03-13T20:49:51.291Z,2.87
2019-03-13T20:51:58.019Z,2.81
2019-03-13T20:54:04.841Z,2.73
2019-03-13T20:56:11.572Z,2.65
2019-03-13T20:58:18.240Z,2.58
2019-03-13T21:00:30.711Z,2.53
2019-03-13T21:02:42.004Z,2.50
2019-03-13T21:04:48.777Z,2.46
2019-03-13T21:06:55.539Z,2.47
2019-03-13T21:09:02.281Z,2.46
2019-03-13T21:11:10.473Z,2.44
2019-03-13T21:13:17.160Z,2.43
2019-03-13T21:15:30.042Z,2.40
2019-03-13T21:17:36.819Z,2.39
2019-03-13T21:19:46.432Z,2.41
2019-03-13T21:21:53.094Z,2.42
2019-03-13T21:24:01.034Z,2.37
2019-03-13T21:26:07.726Z,2.33
2019-03-13T21:28:16.047Z,2.28
2019-03-13T21:30:29.416Z,2.24
2019-03-13T21:32:36.102Z,2.20
2019-03-13T21:34:44.328Z,2.19
2019-03-13T21:36:50.988Z,2.16
2019-03-13T21:38:57.751Z,2.14
2019-03-13T21:41:04.496Z,2.12
2019-03-13T21:43:12.132Z,2.10
2019-03-13T21:45:22.678Z,2.07
2019-03-13T21:47:28.759Z,2.05
2019-03-13T21:49:35.923Z,2.03
2019-03-13T21:51:42.609Z,1.98
2019-03-13T21:53:49.346Z,1.94
2019-03-13T21:55:56.189Z,1.90
2019-03-13T21:58:04.515Z,1.88
2019-03-13T22:00:24.181Z,1.86
2019-03-13T22:02:33.187Z,1.85
2019-03-13T22:04:39.512Z,1.88
2019-03-13T22:06:46.179Z,1.87
2019-03-13T22:08:52.930Z,1.85
2019-03-13T22:10:59.635Z,1.85
2019-03-13T22:13:06.479Z,1.84
2019-03-13T22:15:23.045Z,1.85
2019-03-13T22:17:29.799Z,1.83
2019-03-13T22:19:36.458Z,1.80
2019-03-13T22:21:43.128Z,1.77
2019-03-13T22:23:49.811Z,1.75
2019-03-13T22:25:56.561Z,1.72
2019-03-13T22:28:03.210Z,1.73
2019-03-13T22:30:19.230Z,1.74
2019-03-13T22:32:26.637Z,1.75
2019-03-13T22:34:33.307Z,1.74
2019-03-13T22:36:40.076Z,1.72
2019-03-13T22:38:46.817Z,1.78
2019-03-13T22:40:53.488Z,1.78
2019-03-13T22:43:00.280Z,1.79
2019-03-13T22:45:11.138Z,1.83
2019-03-13T22:47:17.932Z,1.83
2019-03-13T22:49:24.629Z,1.89
2019-03-13T22:51:31.287Z,1.90
2019-03-13T22:53:37.949Z,1.94
2019-03-13T22:55:44.660Z,1.99
2019-03-13T22:57:51.315Z,2.00
2019-03-13T22:59:58.050Z,1.99
2019-03-13T23:02:05.711Z,2.07
2019-03-13T23:04:12.442Z,2.14
2019-03-13T23:06:19.188Z,2.16
2019-03-13T23:08:25.874Z,2.21
2019-03-13T23:10:34.742Z,2.21
2019-03-13T23:12:41.402Z,2.22
2019-03-13T23:14:48.154Z,2.28
2019-03-13T23:16:54.907Z,2.30
2019-03-13T23:19:01.578Z,2.27
2019-03-13T23:21:09.863Z,2.28
2019-03-13T23:23:16.605Z,2.31
2019-03-13T23:25:23.328Z,2.31
2019-03-13T23:27:30.034Z,2.32
2019-03-13T23:29:36.691Z,2.39
2019-03-13T23:31:43.496Z,2.40
2019-03-13T23:33:50.971Z,2.37
2019-03-13T23:35:58.645Z,2.35
2019-03-13T23:38:05.816Z,2.28
2019-03-13T23:40:12.511Z,2.27
2019-03-13T23:42:19.245Z,2.22
2019-03-13T23:44:25.931Z,2.21
2019-03-13T23:46:32.624Z,2.17
2019-03-13T23:48:39.281Z,2.17
2019-03-13T23:50:45.957Z,2.17
2019-03-13T23:52:52.677Z,2.11
2019-03-13T23:55:17.134Z,2.07
2019-03-13T23:57:23.558Z,2.07
2019-03-13T23:59:29.970Z,2.03
